sensor_id;sensor_type;location;lat;lon;timestamp;noise_LAeq;noise_LA_min;noise_LA_max;noise_LA01;noise_LA95
69668;Laerm;66534;52.370;4.832;2023-12-14T00:00:21;47.10;39.37;58.37;;
69668;Laerm;66534;52.370;4.832;2023-12-14T00:00:52;42.82;38.71;47.48;;
69668;Laerm;66534;52.370;4.832;2023-12-14T00:01:23;43.24;38.97;51.56;;
69668;Laerm;66534;52.370;4.832;2023-12-14T00:01:53;41.13;37.77;44.97;;
69668;Laerm;66534;52.370;4.832;2023-12-14T00:02:23;41.85;37.66;50.25;;
69668;Laerm;66534;52.370;4.832;2023-12-14T00:02:53;42.50;39.32;46.55;;
69668;Laerm;66534;52.370;4.832;2023-12-14T00:03:24;40.87;37.05;47.13;;
69668;Laerm;66534;52.370;4.832;2023-12-14T00:03:54;42.53;37.93;47.61;;
69668;Laerm;66534;52.370;4.832;2023-12-14T00:04:24;42.52;39.26;46.06;;
69668;Laerm;66534;52.370;4.832;2023-12-14T00:04:54;47.69;38.70;59.51;;
69668;Laerm;66534;52.370;4.832;2023-12-14T00:05:25;40.32;37.44;43.22;;
69668;Laerm;66534;52.370;4.832;2023-12-14T00:05:55;41.65;37.84;47.46;;
69668;Laerm;66534;52.370;4.832;2023-12-14T00:06:25;39.29;36.74;41.62;;
69668;Laerm;66534;52.370;4.832;2023-12-14T00:06:55;40.38;37.00;55.66;;
69668;Laerm;66534;52.370;4.832;2023-12-14T00:07:26;44.06;38.02;50.35;;
69668;Laerm;66534;52.370;4.832;2023-12-14T00:07:56;41.65;39.10;46.27;;
69668;Laerm;66534;52.370;4.832;2023-12-14T00:08:26;44.02;37.40;52.96;;
69668;Laerm;66534;52.370;4.832;2023-12-14T00:08:56;41.06;36.01;49.59;;
69668;Laerm;66534;52.370;4.832;2023-12-14T00:09:27;37.74;35.28;44.00;;
69668;Laerm;66534;52.370;4.832;2023-12-14T00:09:57;38.95;36.25;44.01;;
69668;Laerm;66534;52.370;4.832;2023-12-14T00:10:27;38.73;36.40;41.88;;
69668;Laerm;66534;52.370;4.832;2023-12-14T00:11:02;39.89;36.81;43.30;;
69668;Laerm;66534;52.370;4.832;2023-12-14T00:11:34;44.28;39.54;51.09;;
69668;Laerm;66534;52.370;4.832;2023-12-14T00:12:07;41.49;36.97;47.05;;
69668;Laerm;66534;52.370;4.832;2023-12-14T00:12:37;41.58;37.92;47.42;;
69668;Laerm;66534;52.370;4.832;2023-12-14T00:13:08;39.68;36.43;42.46;;
69668;Laerm;66534;52.370;4.832;2023-12-14T00:13:38;51.33;37.75;66.45;;
69668;Laerm;66534;52.370;4.832;2023-12-14T00:14:09;44.54;37.90;59.33;;
69668;Laerm;66534;52.370;4.832;2023-12-14T00:14:39;39.74;35.93;43.62;;
69668;Laerm;66534;52.370;4.832;2023-12-14T00:15:09;42.99;39.25;48.19;;
69668;Laerm;66534;52.370;4.832;2023-12-14T00:15:39;42.74;39.84;48.46;;
69668;Laerm;66534;52.370;4.832;2023-12-14T00:16:10;42.12;38.83;53.24;;
69668;Laerm;66534;52.370;4.832;2023-12-14T00:16:40;43.70;39.78;48.40;;
69668;Laerm;66534;52.370;4.832;2023-12-14T00:17:10;46.17;40.32;54.74;;
69668;Laerm;66534;52.370;4.832;2023-12-14T00:17:40;43.48;39.24;57.27;;
69668;Laerm;66534;52.370;4.832;2023-12-14T00:18:11;43.15;37.87;49.19;;
69668;Laerm;66534;52.370;4.832;2023-12-14T00:18:41;43.47;37.67;62.72;;
69668;Laerm;66534;52.370;4.832;2023-12-14T00:19:12;47.10;38.29;63.85;;
69668;Laerm;66534;52.370;4.832;2023-12-14T00:19:42;40.90;37.13;47.48;;
69668;Laerm;66534;52.370;4.832;2023-12-14T00:20:13;44.32;36.81;56.39;;
69668;Laerm;66534;52.370;4.832;2023-12-14T00:20:44;45.52;38.38;56.19;;
69668;Laerm;66534;52.370;4.832;2023-12-14T00:21:14;41.82;38.27;52.24;;
69668;Laerm;66534;52.370;4.832;2023-12-14T00:21:44;39.61;37.24;46.67;;
69668;Laerm;66534;52.370;4.832;2023-12-14T00:22:15;38.58;36.75;49.89;;
69668;Laerm;66534;52.370;4.832;2023-12-14T00:22:45;39.06;36.21;46.74;;
69668;Laerm;66534;52.370;4.832;2023-12-14T00:23:16;40.47;37.43;45.62;;
69668;Laerm;66534;52.370;4.832;2023-12-14T00:23:46;44.44;39.21;51.49;;
69668;Laerm;66534;52.370;4.832;2023-12-14T00:24:16;41.02;38.37;46.70;;
69668;Laerm;66534;52.370;4.832;2023-12-14T00:24:46;38.64;36.39;45.82;;
69668;Laerm;66534;52.370;4.832;2023-12-14T00:25:17;40.32;36.39;44.94;;
69668;Laerm;66534;52.370;4.832;2023-12-14T00:25:47;39.99;37.08;48.22;;
69668;Laerm;66534;52.370;4.832;2023-12-14T00:26:17;41.69;37.73;54.03;;
69668;Laerm;66534;52.370;4.832;2023-12-14T00:26:47;41.90;37.60;47.82;;
69668;Laerm;66534;52.370;4.832;2023-12-14T00:27:17;39.65;37.04;42.25;;
69668;Laerm;66534;52.370;4.832;2023-12-14T00:27:48;41.47;38.18;45.35;;
69668;Laerm;66534;52.370;4.832;2023-12-14T00:28:18;43.28;36.91;54.22;;
69668;Laerm;66534;52.370;4.832;2023-12-14T00:28:48;38.61;35.99;44.18;;
69668;Laerm;66534;52.370;4.832;2023-12-14T00:29:19;42.53;39.12;50.02;;
69668;Laerm;66534;52.370;4.832;2023-12-14T00:29:49;42.78;37.04;47.42;;
69668;Laerm;66534;52.370;4.832;2023-12-14T00:30:19;40.15;37.51;47.24;;
69668;Laerm;66534;52.370;4.832;2023-12-14T00:30:49;43.72;38.95;52.16;;
69668;Laerm;66534;52.370;4.832;2023-12-14T00:31:20;44.17;38.40;52.95;;
69668;Laerm;66534;52.370;4.832;2023-12-14T00:31:50;42.01;38.58;49.33;;
69668;Laerm;66534;52.370;4.832;2023-12-14T00:32:20;40.97;38.36;44.52;;
69668;Laerm;66534;52.370;4.832;2023-12-14T00:32:50;48.17;39.95;57.29;;
69668;Laerm;66534;52.370;4.832;2023-12-14T00:33:21;41.61;37.69;46.76;;
69668;Laerm;66534;52.370;4.832;2023-12-14T00:33:51;40.83;38.24;44.94;;
69668;Laerm;66534;52.370;4.832;2023-12-14T00:34:21;39.28;36.83;42.98;;
69668;Laerm;66534;52.370;4.832;2023-12-14T00:34:52;45.84;37.80;54.03;;
69668;Laerm;66534;52.370;4.832;2023-12-14T00:35:22;44.28;41.23;49.84;;
69668;Laerm;66534;52.370;4.832;2023-12-14T00:35:52;43.85;40.03;48.54;;
69668;Laerm;66534;52.370;4.832;2023-12-14T00:36:22;42.66;38.22;48.26;;
69668;Laerm;66534;52.370;4.832;2023-12-14T00:36:53;41.42;38.36;46.74;;
69668;Laerm;66534;52.370;4.832;2023-12-14T00:37:23;40.44;37.73;45.54;;
69668;Laerm;66534;52.370;4.832;2023-12-14T00:37:53;37.65;35.51;39.97;;
69668;Laerm;66534;52.370;4.832;2023-12-14T00:38:23;39.36;35.68;44.61;;
69668;Laerm;66534;52.370;4.832;2023-12-14T00:38:54;38.93;36.58;45.05;;
69668;Laerm;66534;52.370;4.832;2023-12-14T00:39:25;39.94;37.30;49.95;;
69668;Laerm;66534;52.370;4.832;2023-12-14T00:39:55;39.18;36.90;44.36;;
69668;Laerm;66534;52.370;4.832;2023-12-14T00:40:26;38.57;36.31;42.99;;
69668;Laerm;66534;52.370;4.832;2023-12-14T00:40:56;42.81;35.06;50.85;;
69668;Laerm;66534;52.370;4.832;2023-12-14T00:41:26;36.83;35.01;42.02;;
69668;Laerm;66534;52.370;4.832;2023-12-14T00:41:57;37.22;34.85;42.00;;
69668;Laerm;66534;52.370;4.832;2023-12-14T00:42:27;39.15;36.42;51.13;;
69668;Laerm;66534;52.370;4.832;2023-12-14T00:42:57;42.56;35.93;53.44;;
69668;Laerm;66534;52.370;4.832;2023-12-14T00:43:27;40.93;37.60;45.48;;
69668;Laerm;66534;52.370;4.832;2023-12-14T00:43:58;38.70;36.16;54.38;;
69668;Laerm;66534;52.370;4.832;2023-12-14T00:44:28;39.20;36.36;46.12;;
69668;Laerm;66534;52.370;4.832;2023-12-14T00:44:58;38.28;36.21;41.68;;
69668;Laerm;66534;52.370;4.832;2023-12-14T00:45:28;41.61;37.09;46.40;;
69668;Laerm;66534;52.370;4.832;2023-12-14T00:45:59;39.04;36.53;48.68;;
69668;Laerm;66534;52.370;4.832;2023-12-14T00:46:29;39.46;36.32;42.77;;
69668;Laerm;66534;52.370;4.832;2023-12-14T00:46:59;41.31;36.70;51.96;;
69668;Laerm;66534;52.370;4.832;2023-12-14T00:47:30;41.70;37.77;47.22;;
69668;Laerm;66534;52.370;4.832;2023-12-14T00:48:00;39.08;37.08;42.23;;
69668;Laerm;66534;52.370;4.832;2023-12-14T00:48:30;38.38;35.17;47.89;;
69668;Laerm;66534;52.370;4.832;2023-12-14T00:49:01;36.99;35.06;45.13;;
69668;Laerm;66534;52.370;4.832;2023-12-14T00:49:32;39.11;35.84;44.22;;
69668;Laerm;66534;52.370;4.832;2023-12-14T00:50:02;39.63;35.86;50.40;;
69668;Laerm;66534;52.370;4.832;2023-12-14T00:50:32;37.67;35.45;51.26;;
69668;Laerm;66534;52.370;4.832;2023-12-14T00:51:03;41.30;36.52;50.44;;
69668;Laerm;66534;52.370;4.832;2023-12-14T00:51:33;54.09;42.46;69.68;;
69668;Laerm;66534;52.370;4.832;2023-12-14T00:52:03;43.97;40.42;49.80;;
69668;Laerm;66534;52.370;4.832;2023-12-14T00:52:38;44.28;39.13;50.45;;
69668;Laerm;66534;52.370;4.832;2023-12-14T00:53:08;47.79;39.14;54.45;;
69668;Laerm;66534;52.370;4.832;2023-12-14T00:53:38;38.11;35.95;42.95;;
69668;Laerm;66534;52.370;4.832;2023-12-14T00:54:08;38.59;35.73;51.01;;
69668;Laerm;66534;52.370;4.832;2023-12-14T00:54:39;41.99;36.37;49.97;;
69668;Laerm;66534;52.370;4.832;2023-12-14T00:55:09;41.83;36.76;50.63;;
69668;Laerm;66534;52.370;4.832;2023-12-14T00:55:39;43.50;39.39;50.58;;
69668;Laerm;66534;52.370;4.832;2023-12-14T00:56:09;42.54;36.56;50.29;;
69668;Laerm;66534;52.370;4.832;2023-12-14T00:56:40;38.98;36.47;41.85;;
69668;Laerm;66534;52.370;4.832;2023-12-14T00:57:10;41.35;36.45;48.16;;
69668;Laerm;66534;52.370;4.832;2023-12-14T00:57:40;40.34;36.31;46.36;;
69668;Laerm;66534;52.370;4.832;2023-12-14T00:58:11;37.59;34.77;41.04;;
69668;Laerm;66534;52.370;4.832;2023-12-14T00:58:43;36.13;34.17;38.91;;
69668;Laerm;66534;52.370;4.832;2023-12-14T00:59:13;38.07;35.07;42.81;;
69668;Laerm;66534;52.370;4.832;2023-12-14T00:59:43;38.99;35.36;43.78;;
69668;Laerm;66534;52.370;4.832;2023-12-14T01:00:13;38.81;34.28;45.69;;
69668;Laerm;66534;52.370;4.832;2023-12-14T01:00:44;36.18;34.06;43.79;;
69668;Laerm;66534;52.370;4.832;2023-12-14T01:01:14;36.41;33.82;38.98;;
69668;Laerm;66534;52.370;4.832;2023-12-14T01:01:44;36.72;34.34;45.10;;
69668;Laerm;66534;52.370;4.832;2023-12-14T01:02:15;36.43;34.44;40.38;;
69668;Laerm;66534;52.370;4.832;2023-12-14T01:02:45;40.57;35.59;49.82;;
69668;Laerm;66534;52.370;4.832;2023-12-14T01:03:15;39.74;35.14;48.57;;
69668;Laerm;66534;52.370;4.832;2023-12-14T01:03:46;35.99;33.93;38.11;;
69668;Laerm;66534;52.370;4.832;2023-12-14T01:04:16;36.60;34.41;39.71;;
69668;Laerm;66534;52.370;4.832;2023-12-14T01:04:46;36.45;34.20;39.27;;
69668;Laerm;66534;52.370;4.832;2023-12-14T01:05:16;42.12;35.18;50.19;;
69668;Laerm;66534;52.370;4.832;2023-12-14T01:05:47;43.80;36.91;50.33;;
69668;Laerm;66534;52.370;4.832;2023-12-14T01:06:17;38.13;35.37;43.60;;
69668;Laerm;66534;52.370;4.832;2023-12-14T01:06:47;39.80;34.96;53.02;;
69668;Laerm;66534;52.370;4.832;2023-12-14T01:07:17;42.11;37.94;46.40;;
69668;Laerm;66534;52.370;4.832;2023-12-14T01:07:48;40.72;37.86;45.04;;
69668;Laerm;66534;52.370;4.832;2023-12-14T01:08:18;37.99;35.20;45.25;;
69668;Laerm;66534;52.370;4.832;2023-12-14T01:08:48;38.04;34.89;44.55;;
69668;Laerm;66534;52.370;4.832;2023-12-14T01:09:18;38.69;34.84;45.37;;
69668;Laerm;66534;52.370;4.832;2023-12-14T01:09:49;36.34;34.35;41.25;;
69668;Laerm;66534;52.370;4.832;2023-12-14T01:10:19;45.72;34.64;54.67;;
69668;Laerm;66534;52.370;4.832;2023-12-14T01:10:49;43.64;38.44;52.31;;
69668;Laerm;66534;52.370;4.832;2023-12-14T01:11:20;40.83;35.59;45.60;;
69668;Laerm;66534;52.370;4.832;2023-12-14T01:11:50;38.21;35.11;40.89;;
69668;Laerm;66534;52.370;4.832;2023-12-14T01:12:20;43.66;35.94;58.69;;
69668;Laerm;66534;52.370;4.832;2023-12-14T01:12:51;40.39;35.09;59.00;;
69668;Laerm;66534;52.370;4.832;2023-12-14T01:13:21;39.59;34.78;50.52;;
69668;Laerm;66534;52.370;4.832;2023-12-14T01:13:51;35.63;33.99;37.95;;
69668;Laerm;66534;52.370;4.832;2023-12-14T01:14:21;36.72;33.44;44.47;;
69668;Laerm;66534;52.370;4.832;2023-12-14T01:14:52;39.50;34.21;46.45;;
69668;Laerm;66534;52.370;4.832;2023-12-14T01:15:22;40.74;35.88;51.77;;
69668;Laerm;66534;52.370;4.832;2023-12-14T01:15:52;38.18;35.40;42.18;;
69668;Laerm;66534;52.370;4.832;2023-12-14T01:16:25;37.96;34.09;46.83;;
69668;Laerm;66534;52.370;4.832;2023-12-14T01:16:55;37.30;34.21;47.56;;
69668;Laerm;66534;52.370;4.832;2023-12-14T01:17:25;37.20;35.09;42.11;;
69668;Laerm;66534;52.370;4.832;2023-12-14T01:17:57;39.46;36.03;47.35;;
69668;Laerm;66534;52.370;4.832;2023-12-14T01:18:27;41.00;35.76;52.10;;
69668;Laerm;66534;52.370;4.832;2023-12-14T01:18:57;38.16;35.24;42.59;;
69668;Laerm;66534;52.370;4.832;2023-12-14T01:19:27;38.13;34.80;53.51;;
69668;Laerm;66534;52.370;4.832;2023-12-14T01:19:57;38.13;34.89;48.43;;
69668;Laerm;66534;52.370;4.832;2023-12-14T01:20:28;42.92;37.78;49.85;;
69668;Laerm;66534;52.370;4.832;2023-12-14T01:20:59;37.54;35.56;41.13;;
69668;Laerm;66534;52.370;4.832;2023-12-14T01:21:32;37.03;35.19;41.17;;
69668;Laerm;66534;52.370;4.832;2023-12-14T01:22:02;36.97;35.17;42.56;;
69668;Laerm;66534;52.370;4.832;2023-12-14T01:22:33;41.51;36.57;57.11;;
69668;Laerm;66534;52.370;4.832;2023-12-14T01:23:03;40.24;36.99;44.64;;
69668;Laerm;66534;52.370;4.832;2023-12-14T01:23:33;40.36;36.24;47.18;;
69668;Laerm;66534;52.370;4.832;2023-12-14T01:24:04;40.31;35.18;46.01;;
69668;Laerm;66534;52.370;4.832;2023-12-14T01:24:34;36.71;34.80;42.52;;
69668;Laerm;66534;52.370;4.832;2023-12-14T01:25:04;36.48;34.36;42.94;;
69668;Laerm;66534;52.370;4.832;2023-12-14T01:25:35;36.72;34.12;40.23;;
69668;Laerm;66534;52.370;4.832;2023-12-14T01:26:05;37.13;34.89;50.90;;
69668;Laerm;66534;52.370;4.832;2023-12-14T01:26:35;38.86;34.85;43.54;;
69668;Laerm;66534;52.370;4.832;2023-12-14T01:27:06;39.56;36.45;44.78;;
69668;Laerm;66534;52.370;4.832;2023-12-14T01:27:36;38.51;35.30;44.60;;
69668;Laerm;66534;52.370;4.832;2023-12-14T01:28:06;38.38;35.37;50.36;;
69668;Laerm;66534;52.370;4.832;2023-12-14T01:28:37;42.52;38.74;55.88;;
69668;Laerm;66534;52.370;4.832;2023-12-14T01:29:20;41.14;38.21;48.41;;
69668;Laerm;66534;52.370;4.832;2023-12-14T01:29:51;37.08;34.22;41.70;;
69668;Laerm;66534;52.370;4.832;2023-12-14T01:30:21;37.60;35.44;40.10;;
69668;Laerm;66534;52.370;4.832;2023-12-14T01:30:52;39.73;36.38;45.69;;
69668;Laerm;66534;52.370;4.832;2023-12-14T01:31:23;37.76;35.55;42.34;;
69668;Laerm;66534;52.370;4.832;2023-12-14T01:31:54;38.31;35.39;54.63;;
69668;Laerm;66534;52.370;4.832;2023-12-14T01:32:24;38.84;36.16;44.94;;
69668;Laerm;66534;52.370;4.832;2023-12-14T01:32:54;38.56;35.61;45.96;;
69668;Laerm;66534;52.370;4.832;2023-12-14T01:33:24;43.98;37.65;51.27;;
69668;Laerm;66534;52.370;4.832;2023-12-14T01:33:55;38.70;36.34;43.55;;
69668;Laerm;66534;52.370;4.832;2023-12-14T01:34:25;37.29;34.29;47.72;;
69668;Laerm;66534;52.370;4.832;2023-12-14T01:34:56;35.94;34.21;38.80;;
69668;Laerm;66534;52.370;4.832;2023-12-14T01:35:27;37.32;34.63;42.82;;
69668;Laerm;66534;52.370;4.832;2023-12-14T01:35:59;43.41;37.89;49.58;;
69668;Laerm;66534;52.370;4.832;2023-12-14T01:36:30;39.01;36.85;41.94;;
69668;Laerm;66534;52.370;4.832;2023-12-14T01:37:00;37.05;34.94;40.31;;
69668;Laerm;66534;52.370;4.832;2023-12-14T01:37:30;38.25;35.00;44.29;;
69668;Laerm;66534;52.370;4.832;2023-12-14T01:38:00;38.80;36.38;43.47;;
69668;Laerm;66534;52.370;4.832;2023-12-14T01:38:31;41.93;36.23;47.12;;
69668;Laerm;66534;52.370;4.832;2023-12-14T01:39:01;36.65;34.60;43.78;;
69668;Laerm;66534;52.370;4.832;2023-12-14T01:39:31;37.96;35.22;42.18;;
69668;Laerm;66534;52.370;4.832;2023-12-14T01:40:01;36.81;34.72;41.54;;
69668;Laerm;66534;52.370;4.832;2023-12-14T01:40:32;36.70;34.52;43.06;;
69668;Laerm;66534;52.370;4.832;2023-12-14T01:41:02;39.53;35.30;45.94;;
69668;Laerm;66534;52.370;4.832;2023-12-14T01:41:32;40.27;36.60;52.91;;
69668;Laerm;66534;52.370;4.832;2023-12-14T01:42:03;38.04;35.05;56.43;;
69668;Laerm;66534;52.370;4.832;2023-12-14T01:42:33;38.17;34.96;48.49;;
69668;Laerm;66534;52.370;4.832;2023-12-14T01:43:07;38.64;36.83;41.69;;
69668;Laerm;66534;52.370;4.832;2023-12-14T01:43:38;42.32;36.86;48.60;;
69668;Laerm;66534;52.370;4.832;2023-12-14T01:44:08;38.26;34.94;49.61;;
69668;Laerm;66534;52.370;4.832;2023-12-14T01:44:38;37.43;34.15;52.25;;
69668;Laerm;66534;52.370;4.832;2023-12-14T01:45:09;37.98;35.46;45.20;;
69668;Laerm;66534;52.370;4.832;2023-12-14T01:45:39;36.73;34.73;39.26;;
69668;Laerm;66534;52.370;4.832;2023-12-14T01:46:10;37.05;34.79;40.05;;
69668;Laerm;66534;52.370;4.832;2023-12-14T01:46:40;41.75;34.62;56.75;;
69668;Laerm;66534;52.370;4.832;2023-12-14T01:47:10;40.50;37.16;49.67;;
69668;Laerm;66534;52.370;4.832;2023-12-14T01:47:41;38.79;35.69;52.46;;
69668;Laerm;66534;52.370;4.832;2023-12-14T01:48:11;38.98;36.25;45.12;;
69668;Laerm;66534;52.370;4.832;2023-12-14T01:48:42;41.38;37.33;47.90;;
69668;Laerm;66534;52.370;4.832;2023-12-14T01:49:12;43.22;39.16;48.67;;
69668;Laerm;66534;52.370;4.832;2023-12-14T01:49:42;39.31;36.92;42.28;;
69668;Laerm;66534;52.370;4.832;2023-12-14T01:50:13;39.23;36.98;42.68;;
69668;Laerm;66534;52.370;4.832;2023-12-14T01:50:43;43.54;37.54;52.03;;
69668;Laerm;66534;52.370;4.832;2023-12-14T01:51:13;38.42;34.80;42.85;;
69668;Laerm;66534;52.370;4.832;2023-12-14T01:51:43;40.14;34.67;51.42;;
69668;Laerm;66534;52.370;4.832;2023-12-14T01:52:14;39.59;35.06;49.86;;
69668;Laerm;66534;52.370;4.832;2023-12-14T01:52:44;41.54;35.61;48.65;;
69668;Laerm;66534;52.370;4.832;2023-12-14T01:53:14;42.64;36.75;46.81;;
69668;Laerm;66534;52.370;4.832;2023-12-14T01:53:44;43.73;36.22;49.47;;
69668;Laerm;66534;52.370;4.832;2023-12-14T01:54:15;44.42;35.86;58.02;;
69668;Laerm;66534;52.370;4.832;2023-12-14T01:54:45;37.59;35.24;46.53;;
69668;Laerm;66534;52.370;4.832;2023-12-14T01:55:16;36.93;34.59;43.79;;
69668;Laerm;66534;52.370;4.832;2023-12-14T01:55:46;37.05;34.69;49.91;;
69668;Laerm;66534;52.370;4.832;2023-12-14T01:56:16;38.08;35.42;52.46;;
69668;Laerm;66534;52.370;4.832;2023-12-14T01:56:46;37.70;35.11;47.69;;
69668;Laerm;66534;52.370;4.832;2023-12-14T01:57:17;39.52;35.63;56.72;;
69668;Laerm;66534;52.370;4.832;2023-12-14T01:57:47;40.19;36.00;56.06;;
69668;Laerm;66534;52.370;4.832;2023-12-14T01:58:17;40.00;35.74;47.89;;
69668;Laerm;66534;52.370;4.832;2023-12-14T01:58:47;39.42;34.66;47.04;;
69668;Laerm;66534;52.370;4.832;2023-12-14T01:59:18;36.79;34.77;41.48;;
69668;Laerm;66534;52.370;4.832;2023-12-14T01:59:48;38.49;35.76;48.41;;
69668;Laerm;66534;52.370;4.832;2023-12-14T02:00:21;41.95;36.40;48.32;;
69668;Laerm;66534;52.370;4.832;2023-12-14T02:02:04;38.02;35.57;44.32;;
69668;Laerm;66534;52.370;4.832;2023-12-14T02:02:35;39.78;36.02;44.78;;
69668;Laerm;66534;52.370;4.832;2023-12-14T02:03:08;40.91;36.10;49.51;;
69668;Laerm;66534;52.370;4.832;2023-12-14T02:03:43;39.55;35.72;50.22;;
69668;Laerm;66534;52.370;4.832;2023-12-14T02:04:14;39.39;35.86;44.15;;
69668;Laerm;66534;52.370;4.832;2023-12-14T02:04:44;41.36;35.45;48.46;;
69668;Laerm;66534;52.370;4.832;2023-12-14T02:05:15;38.74;35.00;51.25;;
69668;Laerm;66534;52.370;4.832;2023-12-14T02:05:45;38.41;35.59;41.54;;
69668;Laerm;66534;52.370;4.832;2023-12-14T02:06:16;42.73;36.13;53.23;;
69668;Laerm;66534;52.370;4.832;2023-12-14T02:06:46;43.07;37.46;47.95;;
69668;Laerm;66534;52.370;4.832;2023-12-14T02:07:16;42.20;37.99;49.62;;
69668;Laerm;66534;52.370;4.832;2023-12-14T02:07:46;38.42;35.44;49.03;;
69668;Laerm;66534;52.370;4.832;2023-12-14T02:08:17;38.84;35.50;52.10;;
69668;Laerm;66534;52.370;4.832;2023-12-14T02:08:47;37.99;35.41;42.78;;
69668;Laerm;66534;52.370;4.832;2023-12-14T02:09:17;40.44;34.84;59.51;;
69668;Laerm;66534;52.370;4.832;2023-12-14T02:09:48;39.83;35.39;56.64;;
69668;Laerm;66534;52.370;4.832;2023-12-14T02:10:20;45.18;38.46;53.35;;
69668;Laerm;66534;52.370;4.832;2023-12-14T02:10:50;39.19;35.07;55.71;;
69668;Laerm;66534;52.370;4.832;2023-12-14T02:11:20;38.50;34.98;58.07;;
69668;Laerm;66534;52.370;4.832;2023-12-14T02:11:51;39.04;34.99;51.78;;
69668;Laerm;66534;52.370;4.832;2023-12-14T02:12:21;36.65;34.83;43.62;;
69668;Laerm;66534;52.370;4.832;2023-12-14T02:12:51;38.34;35.50;42.51;;
69668;Laerm;66534;52.370;4.832;2023-12-14T02:13:22;37.39;35.23;40.28;;
69668;Laerm;66534;52.370;4.832;2023-12-14T02:13:52;37.47;35.21;50.89;;
69668;Laerm;66534;52.370;4.832;2023-12-14T02:14:22;40.85;37.05;47.90;;
69668;Laerm;66534;52.370;4.832;2023-12-14T02:14:55;39.59;36.95;46.17;;
69668;Laerm;66534;52.370;4.832;2023-12-14T02:15:26;40.72;36.04;46.10;;
69668;Laerm;66534;52.370;4.832;2023-12-14T02:15:56;38.73;36.37;41.33;;
69668;Laerm;66534;52.370;4.832;2023-12-14T02:16:26;37.84;35.22;41.07;;
69668;Laerm;66534;52.370;4.832;2023-12-14T02:16:56;41.48;36.20;53.17;;
69668;Laerm;66534;52.370;4.832;2023-12-14T02:17:27;39.96;36.45;47.11;;
69668;Laerm;66534;52.370;4.832;2023-12-14T02:17:57;38.64;35.99;43.60;;
69668;Laerm;66534;52.370;4.832;2023-12-14T02:18:27;38.54;34.65;51.19;;
69668;Laerm;66534;52.370;4.832;2023-12-14T02:18:57;40.07;35.31;46.35;;
69668;Laerm;66534;52.370;4.832;2023-12-14T02:19:28;36.76;34.77;46.34;;
69668;Laerm;66534;52.370;4.832;2023-12-14T02:19:58;42.88;36.79;56.29;;
69668;Laerm;66534;52.370;4.832;2023-12-14T02:20:30;39.04;36.33;48.05;;
69668;Laerm;66534;52.370;4.832;2023-12-14T02:21:00;41.33;36.75;62.18;;
69668;Laerm;66534;52.370;4.832;2023-12-14T02:21:30;42.60;37.25;56.70;;
69668;Laerm;66534;52.370;4.832;2023-12-14T02:22:01;38.33;36.36;46.41;;
69668;Laerm;66534;52.370;4.832;2023-12-14T02:23:23;40.12;35.77;46.26;;
69668;Laerm;66534;52.370;4.832;2023-12-14T02:23:53;38.80;35.48;49.90;;
69668;Laerm;66534;52.370;4.832;2023-12-14T02:24:23;37.91;35.21;50.81;;
69668;Laerm;66534;52.370;4.832;2023-12-14T02:24:54;36.61;34.82;40.29;;
69668;Laerm;66534;52.370;4.832;2023-12-14T02:25:24;36.67;34.50;38.86;;
69668;Laerm;66534;52.370;4.832;2023-12-14T02:25:54;36.40;34.10;44.05;;
69668;Laerm;66534;52.370;4.832;2023-12-14T02:26:24;37.43;34.28;42.83;;
69668;Laerm;66534;52.370;4.832;2023-12-14T02:26:55;37.49;35.53;42.79;;
69668;Laerm;66534;52.370;4.832;2023-12-14T02:27:26;41.08;35.64;48.16;;
69668;Laerm;66534;52.370;4.832;2023-12-14T02:27:56;38.34;35.36;51.96;;
69668;Laerm;66534;52.370;4.832;2023-12-14T02:28:26;48.76;38.31;62.76;;
69668;Laerm;66534;52.370;4.832;2023-12-14T02:28:56;43.40;38.52;54.31;;
69668;Laerm;66534;52.370;4.832;2023-12-14T02:29:27;40.24;37.29;43.02;;
69668;Laerm;66534;52.370;4.832;2023-12-14T02:29:57;39.33;36.35;45.68;;
69668;Laerm;66534;52.370;4.832;2023-12-14T02:30:27;39.42;36.34;44.93;;
69668;Laerm;66534;52.370;4.832;2023-12-14T02:30:57;38.42;35.20;45.37;;
69668;Laerm;66534;52.370;4.832;2023-12-14T02:31:28;37.92;35.59;45.45;;
69668;Laerm;66534;52.370;4.832;2023-12-14T02:31:58;39.91;36.13;54.79;;
69668;Laerm;66534;52.370;4.832;2023-12-14T02:32:28;39.14;35.85;53.07;;
69668;Laerm;66534;52.370;4.832;2023-12-14T02:32:58;39.09;35.82;45.59;;
69668;Laerm;66534;52.370;4.832;2023-12-14T02:33:29;39.66;36.24;53.02;;
69668;Laerm;66534;52.370;4.832;2023-12-14T02:33:59;38.03;35.08;48.97;;
69668;Laerm;66534;52.370;4.832;2023-12-14T02:34:29;38.21;35.44;44.90;;
69668;Laerm;66534;52.370;4.832;2023-12-14T02:34:59;38.76;35.81;46.60;;
69668;Laerm;66534;52.370;4.832;2023-12-14T02:35:30;42.19;37.76;47.50;;
69668;Laerm;66534;52.370;4.832;2023-12-14T02:36:00;43.99;39.11;53.04;;
69668;Laerm;66534;52.370;4.832;2023-12-14T02:36:30;40.69;36.85;45.71;;
69668;Laerm;66534;52.370;4.832;2023-12-14T02:37:01;38.88;35.83;50.38;;
69668;Laerm;66534;52.370;4.832;2023-12-14T02:37:31;39.39;35.37;45.02;;
69668;Laerm;66534;52.370;4.832;2023-12-14T02:38:02;37.54;35.84;43.92;;
69668;Laerm;66534;52.370;4.832;2023-12-14T02:38:32;40.77;36.23;50.89;;
69668;Laerm;66534;52.370;4.832;2023-12-14T02:39:03;39.24;36.46;45.38;;
69668;Laerm;66534;52.370;4.832;2023-12-14T02:39:33;44.07;37.18;54.28;;
69668;Laerm;66534;52.370;4.832;2023-12-14T02:40:04;43.74;35.77;55.29;;
69668;Laerm;66534;52.370;4.832;2023-12-14T02:40:34;37.48;34.66;42.40;;
69668;Laerm;66534;52.370;4.832;2023-12-14T02:41:05;43.63;35.84;51.38;;
69668;Laerm;66534;52.370;4.832;2023-12-14T02:41:35;37.65;34.78;43.20;;
69668;Laerm;66534;52.370;4.832;2023-12-14T02:42:05;36.66;33.99;40.91;;
69668;Laerm;66534;52.370;4.832;2023-12-14T02:42:35;37.02;34.67;42.34;;
69668;Laerm;66534;52.370;4.832;2023-12-14T02:43:06;39.18;35.20;43.25;;
69668;Laerm;66534;52.370;4.832;2023-12-14T02:43:36;39.20;36.10;46.70;;
69668;Laerm;66534;52.370;4.832;2023-12-14T02:44:08;38.59;35.77;47.70;;
69668;Laerm;66534;52.370;4.832;2023-12-14T02:44:38;39.33;36.28;45.55;;
69668;Laerm;66534;52.370;4.832;2023-12-14T02:45:08;37.97;35.92;41.79;;
69668;Laerm;66534;52.370;4.832;2023-12-14T02:45:39;39.03;36.61;43.52;;
69668;Laerm;66534;52.370;4.832;2023-12-14T02:46:09;38.95;36.05;44.32;;
69668;Laerm;66534;52.370;4.832;2023-12-14T02:46:41;38.08;35.33;41.92;;
69668;Laerm;66534;52.370;4.832;2023-12-14T02:47:12;39.01;35.87;44.07;;
69668;Laerm;66534;52.370;4.832;2023-12-14T02:47:42;38.29;34.96;54.74;;
69668;Laerm;66534;52.370;4.832;2023-12-14T02:48:12;38.99;35.26;49.26;;
69668;Laerm;66534;52.370;4.832;2023-12-14T02:48:42;36.81;34.59;41.43;;
69668;Laerm;66534;52.370;4.832;2023-12-14T02:49:13;37.47;34.09;54.98;;
69668;Laerm;66534;52.370;4.832;2023-12-14T02:49:43;37.96;35.34;45.46;;
69668;Laerm;66534;52.370;4.832;2023-12-14T02:50:14;37.79;34.61;49.50;;
69668;Laerm;66534;52.370;4.832;2023-12-14T02:50:44;42.12;36.29;49.03;;
69668;Laerm;66534;52.370;4.832;2023-12-14T02:51:14;36.44;34.36;40.80;;
69668;Laerm;66534;52.370;4.832;2023-12-14T02:51:45;36.88;34.61;38.65;;
69668;Laerm;66534;52.370;4.832;2023-12-14T02:52:15;40.83;35.60;50.34;;
69668;Laerm;66534;52.370;4.832;2023-12-14T02:52:45;36.75;34.74;40.81;;